sensor_id;sensor_type;location;lat;lon;timestamp;P1;durP1;ratioP1;P2;durP2;ratioP2
72408;SDS011;60402;48.082;11.628;2023-07-24T00:00:45;11.32;;;4.60;;
72408;SDS011;60402;48.082;11.628;2023-07-24T00:03:31;9.38;;;4.32;;
72408;SDS011;60402;48.082;11.628;2023-07-24T00:06:16;8.75;;;3.92;;
72408;SDS011;60402;48.082;11.628;2023-07-24T00:09:02;9.27;;;4.25;;
72408;SDS011;60402;48.082;11.628;2023-07-24T00:11:48;9.30;;;4.05;;
72408;SDS011;60402;48.082;11.628;2023-07-24T00:14:33;10.00;;;4.10;;
72408;SDS011;60402;48.082;11.628;2023-07-24T00:17:19;9.40;;;4.18;;
72408;SDS011;60402;48.082;11.628;2023-07-24T00:20:05;10.10;;;4.13;;
72408;SDS011;60402;48.082;11.628;2023-07-24T00:22:51;10.65;;;3.80;;
72408;SDS011;60402;48.082;11.628;2023-07-24T00:25:37;8.85;;;3.97;;
72408;SDS011;60402;48.082;11.628;2023-07-24T00:28:23;9.13;;;4.38;;
72408;SDS011;60402;48.082;11.628;2023-07-24T00:31:08;9.73;;;3.97;;
72408;SDS011;60402;48.082;11.628;2023-07-24T00:33:54;10.85;;;4.30;;
72408;SDS011;60402;48.082;11.628;2023-07-24T00:36:40;9.00;;;3.90;;
72408;SDS011;60402;48.082;11.628;2023-07-24T00:39:25;10.10;;;3.90;;
72408;SDS011;60402;48.082;11.628;2023-07-24T00:44:59;9.52;;;4.22;;
72408;SDS011;60402;48.082;11.628;2023-07-24T00:47:44;9.38;;;4.05;;
72408;SDS011;60402;48.082;11.628;2023-07-24T00:50:30;10.10;;;4.15;;
72408;SDS011;60402;48.082;11.628;2023-07-24T00:53:16;9.68;;;4.50;;
72408;SDS011;60402;48.082;11.628;2023-07-24T00:56:03;8.73;;;3.95;;
72408;SDS011;60402;48.082;11.628;2023-07-24T00:58:49;9.02;;;3.88;;
72408;SDS011;60402;48.082;11.628;2023-07-24T01:01:35;10.23;;;4.30;;
72408;SDS011;60402;48.082;11.628;2023-07-24T01:04:23;10.70;;;4.38;;
72408;SDS011;60402;48.082;11.628;2023-07-24T01:07:08;9.38;;;4.25;;
72408;SDS011;60402;48.082;11.628;2023-07-24T01:09:54;8.73;;;3.60;;
72408;SDS011;60402;48.082;11.628;2023-07-24T01:16:00;10.05;;;4.20;;
72408;SDS011;60402;48.082;11.628;2023-07-24T01:18:49;10.70;;;4.25;;
72408;SDS011;60402;48.082;11.628;2023-07-24T01:21:44;9.48;;;4.30;;
72408;SDS011;60402;48.082;11.628;2023-07-24T01:24:48;9.07;;;3.83;;
72408;SDS011;60402;48.082;11.628;2023-07-24T01:27:45;9.20;;;3.33;;
72408;SDS011;60402;48.082;11.628;2023-07-24T01:30:31;9.55;;;4.40;;
72408;SDS011;60402;48.082;11.628;2023-07-24T01:33:17;8.68;;;3.60;;
72408;SDS011;60402;48.082;11.628;2023-07-24T01:36:03;9.20;;;3.85;;
72408;SDS011;60402;48.082;11.628;2023-07-24T01:38:49;10.13;;;3.88;;
72408;SDS011;60402;48.082;11.628;2023-07-24T01:41:36;8.38;;;3.55;;
72408;SDS011;60402;48.082;11.628;2023-07-24T01:44:23;9.63;;;4.15;;
72408;SDS011;60402;48.082;11.628;2023-07-24T01:47:09;9.00;;;4.10;;
72408;SDS011;60402;48.082;11.628;2023-07-24T01:49:54;9.35;;;4.03;;
72408;SDS011;60402;48.082;11.628;2023-07-24T01:52:40;8.85;;;3.83;;
72408;SDS011;60402;48.082;11.628;2023-07-24T01:55:26;9.50;;;4.03;;
72408;SDS011;60402;48.082;11.628;2023-07-24T01:58:12;10.40;;;4.00;;
72408;SDS011;60402;48.082;11.628;2023-07-24T02:00:57;10.32;;;4.40;;
72408;SDS011;60402;48.082;11.628;2023-07-24T02:03:43;8.15;;;3.67;;
72408;SDS011;60402;48.082;11.628;2023-07-24T02:06:29;8.00;;;4.07;;
72408;SDS011;60402;48.082;11.628;2023-07-24T02:09:14;8.38;;;3.80;;
72408;SDS011;60402;48.082;11.628;2023-07-24T02:12:01;9.50;;;3.80;;
72408;SDS011;60402;48.082;11.628;2023-07-24T02:14:47;10.15;;;4.10;;
72408;SDS011;60402;48.082;11.628;2023-07-24T02:17:36;10.05;;;4.32;;
72408;SDS011;60402;48.082;11.628;2023-07-24T02:20:22;10.52;;;4.25;;
72408;SDS011;60402;48.082;11.628;2023-07-24T02:23:08;8.65;;;3.95;;
72408;SDS011;60402;48.082;11.628;2023-07-24T02:25:54;10.45;;;4.57;;
72408;SDS011;60402;48.082;11.628;2023-07-24T02:28:39;9.55;;;4.20;;
72408;SDS011;60402;48.082;11.628;2023-07-24T02:31:25;9.65;;;4.22;;
72408;SDS011;60402;48.082;11.628;2023-07-24T02:34:11;10.27;;;4.18;;
72408;SDS011;60402;48.082;11.628;2023-07-24T02:36:57;10.18;;;4.70;;
72408;SDS011;60402;48.082;11.628;2023-07-24T02:39:42;9.73;;;4.13;;
72408;SDS011;60402;48.082;11.628;2023-07-24T02:42:28;10.43;;;4.07;;
72408;SDS011;60402;48.082;11.628;2023-07-24T02:45:13;10.63;;;4.63;;
72408;SDS011;60402;48.082;11.628;2023-07-24T02:47:59;9.68;;;4.13;;
72408;SDS011;60402;48.082;11.628;2023-07-24T02:50:47;9.20;;;4.10;;
72408;SDS011;60402;48.082;11.628;2023-07-24T02:53:33;9.07;;;4.22;;
72408;SDS011;60402;48.082;11.628;2023-07-24T02:56:19;12.85;;;4.88;;
72408;SDS011;60402;48.082;11.628;2023-07-24T02:59:06;10.00;;;4.25;;
72408;SDS011;60402;48.082;11.628;2023-07-24T03:01:51;11.20;;;4.65;;
72408;SDS011;60402;48.082;11.628;2023-07-24T03:04:37;10.00;;;4.90;;
72408;SDS011;60402;48.082;11.628;2023-07-24T03:07:22;12.77;;;5.80;;
72408;SDS011;60402;48.082;11.628;2023-07-24T03:10:08;9.80;;;4.43;;
72408;SDS011;60402;48.082;11.628;2023-07-24T03:12:54;10.60;;;4.15;;
72408;SDS011;60402;48.082;11.628;2023-07-24T03:15:40;17.63;;;5.65;;
72408;SDS011;60402;48.082;11.628;2023-07-24T03:18:25;15.40;;;5.63;;
72408;SDS011;60402;48.082;11.628;2023-07-24T03:21:11;11.77;;;4.78;;
72408;SDS011;60402;48.082;11.628;2023-07-24T03:23:57;12.90;;;5.00;;
72408;SDS011;60402;48.082;11.628;2023-07-24T03:26:42;12.00;;;4.93;;
72408;SDS011;60402;48.082;11.628;2023-07-24T03:29:28;13.05;;;5.20;;
72408;SDS011;60402;48.082;11.628;2023-07-24T03:32:14;10.77;;;4.80;;
72408;SDS011;60402;48.082;11.628;2023-07-24T03:35:00;11.98;;;4.90;;
72408;SDS011;60402;48.082;11.628;2023-07-24T03:37:45;12.43;;;5.30;;
72408;SDS011;60402;48.082;11.628;2023-07-24T03:40:31;12.20;;;4.93;;
72408;SDS011;60402;48.082;11.628;2023-07-24T03:43:17;14.73;;;5.32;;
72408;SDS011;60402;48.082;11.628;2023-07-24T03:46:03;11.27;;;4.80;;
72408;SDS011;60402;48.082;11.628;2023-07-24T03:48:48;11.70;;;4.90;;
72408;SDS011;60402;48.082;11.628;2023-07-24T03:51:35;11.98;;;4.88;;
72408;SDS011;60402;48.082;11.628;2023-07-24T03:54:21;13.55;;;5.68;;
72408;SDS011;60402;48.082;11.628;2023-07-24T03:57:07;13.18;;;5.38;;
72408;SDS011;60402;48.082;11.628;2023-07-24T03:59:52;13.43;;;5.00;;
72408;SDS011;60402;48.082;11.628;2023-07-24T04:02:38;13.52;;;5.65;;
72408;SDS011;60402;48.082;11.628;2023-07-24T04:05:25;13.65;;;5.63;;
72408;SDS011;60402;48.082;11.628;2023-07-24T04:08:11;13.48;;;5.70;;
72408;SDS011;60402;48.082;11.628;2023-07-24T04:10:57;12.38;;;5.22;;
72408;SDS011;60402;48.082;11.628;2023-07-24T04:13:42;11.50;;;5.15;;
72408;SDS011;60402;48.082;11.628;2023-07-24T04:16:28;11.93;;;5.38;;
72408;SDS011;60402;48.082;11.628;2023-07-24T04:19:14;11.18;;;5.03;;
72408;SDS011;60402;48.082;11.628;2023-07-24T04:21:59;15.48;;;6.47;;
72408;SDS011;60402;48.082;11.628;2023-07-24T04:24:45;10.40;;;5.75;;
72408;SDS011;60402;48.082;11.628;2023-07-24T04:27:30;11.98;;;5.40;;
72408;SDS011;60402;48.082;11.628;2023-07-24T04:30:16;13.68;;;5.38;;
72408;SDS011;60402;48.082;11.628;2023-07-24T04:33:02;12.80;;;5.43;;
72408;SDS011;60402;48.082;11.628;2023-07-24T04:35:48;11.98;;;4.88;;
72408;SDS011;60402;48.082;11.628;2023-07-24T04:38:34;10.82;;;5.05;;
72408;SDS011;60402;48.082;11.628;2023-07-24T04:41:20;13.88;;;5.75;;
72408;SDS011;60402;48.082;11.628;2023-07-24T04:44:05;12.88;;;5.55;;
72408;SDS011;60402;48.082;11.628;2023-07-24T04:46:51;13.30;;;5.55;;
72408;SDS011;60402;48.082;11.628;2023-07-24T04:49:36;12.35;;;5.57;;
72408;SDS011;60402;48.082;11.628;2023-07-24T04:52:22;12.30;;;5.30;;
72408;SDS011;60402;48.082;11.628;2023-07-24T04:55:08;13.25;;;5.35;;
72408;SDS011;60402;48.082;11.628;2023-07-24T04:57:53;11.48;;;5.05;;
72408;SDS011;60402;48.082;11.628;2023-07-24T05:00:39;11.23;;;5.50;;
72408;SDS011;60402;48.082;11.628;2023-07-24T05:03:25;12.38;;;5.00;;
72408;SDS011;60402;48.082;11.628;2023-07-24T05:06:10;11.70;;;4.95;;
72408;SDS011;60402;48.082;11.628;2023-07-24T05:08:56;11.15;;;5.15;;
72408;SDS011;60402;48.082;11.628;2023-07-24T05:11:42;11.82;;;4.53;;
72408;SDS011;60402;48.082;11.628;2023-07-24T05:14:29;12.82;;;5.47;;
72408;SDS011;60402;48.082;11.628;2023-07-24T05:17:15;11.85;;;4.72;;
72408;SDS011;60402;48.082;11.628;2023-07-24T05:20:01;10.07;;;4.95;;
72408;SDS011;60402;48.082;11.628;2023-07-24T05:22:47;11.73;;;5.10;;
72408;SDS011;60402;48.082;11.628;2023-07-24T05:25:32;12.90;;;5.38;;
72408;SDS011;60402;48.082;11.628;2023-07-24T05:28:18;12.65;;;5.43;;
72408;SDS011;60402;48.082;11.628;2023-07-24T05:31:04;12.20;;;4.63;;
72408;SDS011;60402;48.082;11.628;2023-07-24T05:33:50;10.88;;;4.93;;
72408;SDS011;60402;48.082;11.628;2023-07-24T05:36:35;14.07;;;5.00;;
72408;SDS011;60402;48.082;11.628;2023-07-24T05:39:21;12.63;;;5.13;;
72408;SDS011;60402;48.082;11.628;2023-07-24T05:42:07;11.85;;;5.55;;
72408;SDS011;60402;48.082;11.628;2023-07-24T05:44:52;11.98;;;5.30;;
72408;SDS011;60402;48.082;11.628;2023-07-24T05:47:38;11.15;;;5.38;;
72408;SDS011;60402;48.082;11.628;2023-07-24T05:50:24;12.30;;;4.97;;
72408;SDS011;60402;48.082;11.628;2023-07-24T05:53:09;9.93;;;5.07;;
72408;SDS011;60402;48.082;11.628;2023-07-24T05:55:56;11.23;;;5.00;;
72408;SDS011;60402;48.082;11.628;2023-07-24T05:58:43;12.05;;;5.20;;
72408;SDS011;60402;48.082;11.628;2023-07-24T06:01:29;11.30;;;5.55;;
72408;SDS011;60402;48.082;11.628;2023-07-24T06:04:14;12.93;;;5.00;;
72408;SDS011;60402;48.082;11.628;2023-07-24T06:07:00;12.38;;;4.95;;
72408;SDS011;60402;48.082;11.628;2023-07-24T06:09:45;11.75;;;5.10;;
72408;SDS011;60402;48.082;11.628;2023-07-24T06:12:31;10.73;;;4.57;;
72408;SDS011;60402;48.082;11.628;2023-07-24T06:15:17;13.15;;;5.35;;
72408;SDS011;60402;48.082;11.628;2023-07-24T06:18:02;12.20;;;5.30;;
72408;SDS011;60402;48.082;11.628;2023-07-24T06:20:51;11.68;;;5.40;;
72408;SDS011;60402;48.082;11.628;2023-07-24T06:23:38;10.85;;;5.03;;
72408;SDS011;60402;48.082;11.628;2023-07-24T06:26:23;10.88;;;4.72;;
72408;SDS011;60402;48.082;11.628;2023-07-24T06:29:09;12.43;;;4.85;;
72408;SDS011;60402;48.082;11.628;2023-07-24T06:31:54;11.98;;;5.35;;
72408;SDS011;60402;48.082;11.628;2023-07-24T06:34:40;10.95;;;5.10;;
72408;SDS011;60402;48.082;11.628;2023-07-24T06:37:28;11.52;;;4.88;;
72408;SDS011;60402;48.082;11.628;2023-07-24T06:40:14;12.10;;;5.22;;
72408;SDS011;60402;48.082;11.628;2023-07-24T06:43:00;10.73;;;5.43;;
72408;SDS011;60402;48.082;11.628;2023-07-24T06:45:45;11.00;;;4.90;;
72408;SDS011;60402;48.082;11.628;2023-07-24T06:48:31;10.45;;;4.85;;
72408;SDS011;60402;48.082;11.628;2023-07-24T06:51:17;11.35;;;5.18;;
72408;SDS011;60402;48.082;11.628;2023-07-24T06:54:03;11.30;;;4.90;;
72408;SDS011;60402;48.082;11.628;2023-07-24T06:56:48;10.57;;;5.07;;
72408;SDS011;60402;48.082;11.628;2023-07-24T06:59:34;11.05;;;5.03;;
72408;SDS011;60402;48.082;11.628;2023-07-24T07:02:20;11.93;;;5.30;;
72408;SDS011;60402;48.082;11.628;2023-07-24T07:05:05;10.63;;;5.30;;
72408;SDS011;60402;48.082;11.628;2023-07-24T07:07:51;10.57;;;5.05;;
72408;SDS011;60402;48.082;11.628;2023-07-24T07:10:37;11.18;;;5.28;;
72408;SDS011;60402;48.082;11.628;2023-07-24T07:13:22;10.90;;;4.80;;
72408;SDS011;60402;48.082;11.628;2023-07-24T07:16:08;11.07;;;4.57;;
72408;SDS011;60402;48.082;11.628;2023-07-24T07:18:54;10.68;;;5.07;;
72408;SDS011;60402;48.082;11.628;2023-07-24T07:21:39;11.55;;;5.50;;
72408;SDS011;60402;48.082;11.628;2023-07-24T07:24:25;10.18;;;4.88;;
72408;SDS011;60402;48.082;11.628;2023-07-24T07:27:10;10.15;;;4.80;;
72408;SDS011;60402;48.082;11.628;2023-07-24T07:29:56;10.30;;;4.85;;
72408;SDS011;60402;48.082;11.628;2023-07-24T07:32:42;10.77;;;4.78;;
72408;SDS011;60402;48.082;11.628;2023-07-24T07:35:28;10.50;;;4.80;;
72408;SDS011;60402;48.082;11.628;2023-07-24T07:38:13;11.90;;;5.22;;
72408;SDS011;60402;48.082;11.628;2023-07-24T07:41:03;11.30;;;5.43;;
72408;SDS011;60402;48.082;11.628;2023-07-24T07:43:49;9.73;;;4.95;;
72408;SDS011;60402;48.082;11.628;2023-07-24T07:46:35;10.98;;;5.00;;
72408;SDS011;60402;48.082;11.628;2023-07-24T07:49:20;11.52;;;4.55;;
72408;SDS011;60402;48.082;11.628;2023-07-24T07:52:06;9.93;;;4.97;;
72408;SDS011;60402;48.082;11.628;2023-07-24T07:54:52;10.93;;;5.18;;
72408;SDS011;60402;48.082;11.628;2023-07-24T07:57:37;10.07;;;4.57;;
72408;SDS011;60402;48.082;11.628;2023-07-24T08:00:23;10.82;;;4.88;;
72408;SDS011;60402;48.082;11.628;2023-07-24T08:03:09;11.65;;;5.07;;
72408;SDS011;60402;48.082;11.628;2023-07-24T08:05:56;11.82;;;5.72;;
72408;SDS011;60402;48.082;11.628;2023-07-24T08:08:43;12.23;;;5.43;;
72408;SDS011;60402;48.082;11.628;2023-07-24T08:11:28;11.10;;;5.18;;
72408;SDS011;60402;48.082;11.628;2023-07-24T08:14:14;11.40;;;5.07;;
72408;SDS011;60402;48.082;11.628;2023-07-24T08:17:00;12.48;;;5.05;;
72408;SDS011;60402;48.082;11.628;2023-07-24T08:19:45;10.75;;;4.60;;
72408;SDS011;60402;48.082;11.628;2023-07-24T08:22:31;10.10;;;4.65;;
72408;SDS011;60402;48.082;11.628;2023-07-24T08:25:17;12.05;;;4.45;;
72408;SDS011;60402;48.082;11.628;2023-07-24T08:28:02;10.15;;;4.18;;
72408;SDS011;60402;48.082;11.628;2023-07-24T08:30:56;9.20;;;4.20;;
72408;SDS011;60402;48.082;11.628;2023-07-24T08:33:47;10.48;;;4.30;;
72408;SDS011;60402;48.082;11.628;2023-07-24T08:36:32;10.18;;;4.25;;
72408;SDS011;60402;48.082;11.628;2023-07-24T08:39:18;10.43;;;3.97;;
72408;SDS011;60402;48.082;11.628;2023-07-24T08:42:10;11.40;;;5.03;;
72408;SDS011;60402;48.082;11.628;2023-07-24T08:44:57;9.10;;;3.92;;
72408;SDS011;60402;48.082;11.628;2023-07-24T08:47:44;9.75;;;4.00;;
72408;SDS011;60402;48.082;11.628;2023-07-24T08:50:30;9.15;;;4.30;;
72408;SDS011;60402;48.082;11.628;2023-07-24T08:53:17;8.95;;;3.97;;
72408;SDS011;60402;48.082;11.628;2023-07-24T08:56:05;9.55;;;4.15;;
72408;SDS011;60402;48.082;11.628;2023-07-24T08:58:52;10.20;;;4.43;;
72408;SDS011;60402;48.082;11.628;2023-07-24T09:01:38;10.75;;;4.22;;
72408;SDS011;60402;48.082;11.628;2023-07-24T09:04:24;11.15;;;4.15;;
72408;SDS011;60402;48.082;11.628;2023-07-24T09:07:10;9.77;;;4.18;;
72408;SDS011;60402;48.082;11.628;2023-07-24T09:09:56;9.70;;;3.85;;
72408;SDS011;60402;48.082;11.628;2023-07-24T09:12:42;9.05;;;3.60;;
72408;SDS011;60402;48.082;11.628;2023-07-24T09:15:28;11.15;;;4.20;;
72408;SDS011;60402;48.082;11.628;2023-07-24T09:18:13;10.35;;;3.90;;
72408;SDS011;60402;48.082;11.628;2023-07-24T09:21:00;9.10;;;4.18;;
72408;SDS011;60402;48.082;11.628;2023-07-24T09:23:46;12.23;;;4.25;;
72408;SDS011;60402;48.082;11.628;2023-07-24T09:26:31;10.63;;;3.95;;
72408;SDS011;60402;48.082;11.628;2023-07-24T09:29:17;8.30;;;3.40;;
72408;SDS011;60402;48.082;11.628;2023-07-24T09:32:04;8.13;;;3.45;;
72408;SDS011;60402;48.082;11.628;2023-07-24T09:34:51;8.10;;;3.20;;
72408;SDS011;60402;48.082;11.628;2023-07-24T09:37:37;7.55;;;2.92;;
72408;SDS011;60402;48.082;11.628;2023-07-24T09:40:22;7.63;;;3.05;;
72408;SDS011;60402;48.082;11.628;2023-07-24T09:43:41;6.65;;;2.85;;
72408;SDS011;60402;48.082;11.628;2023-07-24T09:46:21;8.32;;;2.92;;
72408;SDS011;60402;48.082;11.628;2023-07-24T09:49:07;9.77;;;3.00;;
72408;SDS011;60402;48.082;11.628;2023-07-24T09:51:53;7.30;;;2.65;;
72408;SDS011;60402;48.082;11.628;2023-07-24T09:54:45;6.45;;;2.47;;
72408;SDS011;60402;48.082;11.628;2023-07-24T09:57:42;6.90;;;2.70;;
72408;SDS011;60402;48.082;11.628;2023-07-24T10:00:31;6.75;;;2.45;;
72408;SDS011;60402;48.082;11.628;2023-07-24T10:03:17;6.75;;;2.95;;
72408;SDS011;60402;48.082;11.628;2023-07-24T10:06:03;6.28;;;2.45;;
72408;SDS011;60402;48.082;11.628;2023-07-24T10:08:50;7.07;;;3.00;;
72408;SDS011;60402;48.082;11.628;2023-07-24T10:11:37;7.43;;;2.65;;
72408;SDS011;60402;48.082;11.628;2023-07-24T10:14:22;6.55;;;3.03;;
72408;SDS011;60402;48.082;11.628;2023-07-24T10:17:09;6.05;;;2.28;;
72408;SDS011;60402;48.082;11.628;2023-07-24T10:20:01;5.63;;;2.38;;
72408;SDS011;60402;48.082;11.628;2023-07-24T10:22:48;6.90;;;2.85;;
72408;SDS011;60402;48.082;11.628;2023-07-24T10:25:36;7.65;;;2.60;;
72408;SDS011;60402;48.082;11.628;2023-07-24T10:28:32;6.55;;;2.33;;
72408;SDS011;60402;48.082;11.628;2023-07-24T10:31:23;7.15;;;2.80;;
72408;SDS011;60402;48.082;11.628;2023-07-24T10:34:12;6.35;;;2.55;;
72408;SDS011;60402;48.082;11.628;2023-07-24T10:37:02;6.05;;;2.78;;
72408;SDS011;60402;48.082;11.628;2023-07-24T10:39:48;6.95;;;2.78;;
72408;SDS011;60402;48.082;11.628;2023-07-24T10:42:34;6.75;;;2.80;;
72408;SDS011;60402;48.082;11.628;2023-07-24T10:45:20;8.95;;;2.88;;
72408;SDS011;60402;48.082;11.628;2023-07-24T10:48:06;5.93;;;2.60;;
72408;SDS011;60402;48.082;11.628;2023-07-24T10:50:52;7.03;;;2.85;;
72408;SDS011;60402;48.082;11.628;2023-07-24T10:53:38;6.60;;;2.85;;
72408;SDS011;60402;48.082;11.628;2023-07-24T10:56:27;5.57;;;2.55;;
72408;SDS011;60402;48.082;11.628;2023-07-24T10:59:13;6.35;;;2.85;;
72408;SDS011;60402;48.082;11.628;2023-07-24T11:02:00;7.72;;;2.95;;
72408;SDS011;60402;48.082;11.628;2023-07-24T11:04:48;5.78;;;2.45;;
72408;SDS011;60402;48.082;11.628;2023-07-24T11:07:34;7.03;;;3.00;;
72408;SDS011;60402;48.082;11.628;2023-07-24T11:10:20;6.88;;;2.72;;
72408;SDS011;60402;48.082;11.628;2023-07-24T11:13:09;6.65;;;3.03;;
72408;SDS011;60402;48.082;11.628;2023-07-24T11:15:55;7.18;;;3.10;;
72408;SDS011;60402;48.082;11.628;2023-07-24T11:18:48;7.90;;;2.88;;
72408;SDS011;60402;48.082;11.628;2023-07-24T11:21:36;6.43;;;2.47;;
72408;SDS011;60402;48.082;11.628;2023-07-24T11:24:22;6.25;;;2.80;;
72408;SDS011;60402;48.082;11.628;2023-07-24T11:27:08;8.55;;;3.05;;
72408;SDS011;60402;48.082;11.628;2023-07-24T11:29:57;7.53;;;2.78;;
72408;SDS011;60402;48.082;11.628;2023-07-24T11:32:43;6.18;;;2.63;;
72408;SDS011;60402;48.082;11.628;2023-07-24T11:35:28;6.93;;;3.08;;
72408;SDS011;60402;48.082;11.628;2023-07-24T11:38:15;6.50;;;2.88;;
72408;SDS011;60402;48.082;11.628;2023-07-24T11:41:01;6.68;;;2.97;;
72408;SDS011;60402;48.082;11.628;2023-07-24T11:43:48;7.15;;;3.08;;
72408;SDS011;60402;48.082;11.628;2023-07-24T11:46:35;8.05;;;3.00;;
72408;SDS011;60402;48.082;11.628;2023-07-24T11:49:20;6.97;;;2.67;;
72408;SDS011;60402;48.082;11.628;2023-07-24T11:52:06;8.63;;;3.33;;
72408;SDS011;60402;48.082;11.628;2023-07-24T11:54:56;8.40;;;3.15;;
72408;SDS011;60402;48.082;11.628;2023-07-24T11:57:55;7.45;;;3.25;;
72408;SDS011;60402;48.082;11.628;2023-07-24T12:00:46;7.10;;;2.88;;
72408;SDS011;60402;48.082;11.628;2023-07-24T12:03:32;7.10;;;2.72;;
72408;SDS011;60402;48.082;11.628;2023-07-24T12:06:18;7.03;;;3.03;;
72408;SDS011;60402;48.082;11.628;2023-07-24T12:09:05;6.85;;;3.20;;
72408;SDS011;60402;48.082;11.628;2023-07-24T12:11:51;7.43;;;3.65;;
72408;SDS011;60402;48.082;11.628;2023-07-24T12:14:37;8.88;;;4.00;;
72408;SDS011;60402;48.082;11.628;2023-07-24T12:17:23;8.30;;;3.47;;
72408;SDS011;60402;48.082;11.628;2023-07-24T12:20:08;8.95;;;3.45;;
72408;SDS011;60402;48.082;11.628;2023-07-24T12:22:54;7.65;;;3.50;;
72408;SDS011;60402;48.082;11.628;2023-07-24T12:25:40;7.03;;;3.28;;
72408;SDS011;60402;48.082;11.628;2023-07-24T12:28:26;6.70;;;2.88;;
72408;SDS011;60402;48.082;11.628;2023-07-24T12:31:12;8.70;;;2.90;;
72408;SDS011;60402;48.082;11.628;2023-07-24T12:33:57;7.85;;;2.47;;
72408;SDS011;60402;48.082;11.628;2023-07-24T12:36:43;8.48;;;3.30;;
72408;SDS011;60402;48.082;11.628;2023-07-24T12:39:29;7.05;;;2.95;;
72408;SDS011;60402;48.082;11.628;2023-07-24T12:42:15;7.60;;;2.78;;
72408;SDS011;60402;48.082;11.628;2023-07-24T12:45:01;6.70;;;2.90;;
72408;SDS011;60402;48.082;11.628;2023-07-24T12:47:50;8.90;;;2.80;;
72408;SDS011;60402;48.082;11.628;2023-07-24T12:50:35;6.25;;;2.67;;
72408;SDS011;60402;48.082;11.628;2023-07-24T12:53:21;8.20;;;3.30;;
72408;SDS011;60402;48.082;11.628;2023-07-24T12:56:06;7.80;;;3.03;;
72408;SDS011;60402;48.082;11.628;2023-07-24T12:58:52;8.40;;;3.22;;
72408;SDS011;60402;48.082;11.628;2023-07-24T13:01:38;7.88;;;3.17;;
72408;SDS011;60402;48.082;11.628;2023-07-24T13:04:23;6.18;;;2.75;;
72408;SDS011;60402;48.082;11.628;2023-07-24T13:07:09;7.15;;;2.85;;
72408;SDS011;60402;48.082;11.628;2023-07-24T13:09:55;7.38;;;2.95;;
72408;SDS011;60402;48.082;11.628;2023-07-24T13:12:40;7.28;;;3.05;;
72408;SDS011;60402;48.082;11.628;2023-07-24T13:15:26;7.05;;;2.55;;
72408;SDS011;60402;48.082;11.628;2023-07-24T13:18:12;8.50;;;3.10;;
72408;SDS011;60402;48.082;11.628;2023-07-24T13:20:59;7.80;;;2.83;;
72408;SDS011;60402;48.082;11.628;2023-07-24T13:23:44;7.38;;;3.20;;
72408;SDS011;60402;48.082;11.628;2023-07-24T13:26:30;7.10;;;2.97;;
72408;SDS011;60402;48.082;11.628;2023-07-24T13:29:16;9.82;;;3.15;;
72408;SDS011;60402;48.082;11.628;2023-07-24T13:32:02;8.45;;;3.00;;
72408;SDS011;60402;48.082;11.628;2023-07-24T13:34:47;8.07;;;3.10;;
72408;SDS011;60402;48.082;11.628;2023-07-24T13:37:33;8.35;;;3.08;;
72408;SDS011;60402;48.082;11.628;2023-07-24T13:40:18;6.90;;;2.75;;
72408;SDS011;60402;48.082;11.628;2023-07-24T13:43:04;7.65;;;2.92;;
72408;SDS011;60402;48.082;11.628;2023-07-24T13:45:50;7.47;;;3.08;;
72408;SDS011;60402;48.082;11.628;2023-07-24T13:48:36;6.78;;;3.22;;
72408;SDS011;60402;48.082;11.628;2023-07-24T13:51:21;7.03;;;2.80;;
72408;SDS011;60402;48.082;11.628;2023-07-24T13:54:07;7.75;;;3.03;;
72408;SDS011;60402;48.082;11.628;2023-07-24T13:56:53;6.63;;;2.42;;
72408;SDS011;60402;48.082;11.628;2023-07-24T13:59:38;8.20;;;2.60;;
72408;SDS011;60402;48.082;11.628;2023-07-24T14:02:26;7.18;;;2.50;;
72408;SDS011;60402;48.082;11.628;2023-07-24T14:05:11;7.10;;;3.00;;
72408;SDS011;60402;48.082;11.628;2023-07-24T14:07:57;6.88;;;2.60;;
72408;SDS011;60402;48.082;11.628;2023-07-24T14:10:43;7.28;;;2.80;;
72408;SDS011;60402;48.082;11.628;2023-07-24T14:13:28;7.70;;;2.70;;
72408;SDS011;60402;48.082;11.628;2023-07-24T14:16:14;5.03;;;2.30;;
72408;SDS011;60402;48.082;11.628;2023-07-24T14:19:00;6.47;;;2.30;;
72408;SDS011;60402;48.082;11.628;2023-07-24T14:21:45;5.15;;;2.22;;
72408;SDS011;60402;48.082;11.628;2023-07-24T14:24:31;7.80;;;2.60;;
72408;SDS011;60402;48.082;11.628;2023-07-24T14:27:16;6.05;;;2.35;;
72408;SDS011;60402;48.082;11.628;2023-07-24T14:30:02;4.97;;;1.80;;
72408;SDS011;60402;48.082;11.628;2023-07-24T14:32:48;6.75;;;2.33;;
72408;SDS011;60402;48.082;11.628;2023-07-24T14:35:35;6.88;;;2.42;;
72408;SDS011;60402;48.082;11.628;2023-07-24T14:38:21;7.03;;;2.63;;
72408;SDS011;60402;48.082;11.628;2023-07-24T14:41:06;6.20;;;2.28;;
72408;SDS011;60402;48.082;11.628;2023-07-24T14:43:52;6.25;;;2.80;;
72408;SDS011;60402;48.082;11.628;2023-07-24T14:46:38;7.78;;;2.72;;
72408;SDS011;60402;48.082;11.628;2023-07-24T14:49:23;6.18;;;2.03;;
72408;SDS011;60402;48.082;11.628;2023-07-24T14:52:09;5.97;;;2.70;;
72408;SDS011;60402;48.082;11.628;2023-07-24T14:54:54;7.95;;;2.28;;
72408;SDS011;60402;48.082;11.628;2023-07-24T14:57:40;4.95;;;2.00;;
72408;SDS011;60402;48.082;11.628;2023-07-24T15:00:26;5.95;;;2.00;;
72408;SDS011;60402;48.082;11.628;2023-07-24T15:03:11;5.88;;;1.90;;
72408;SDS011;60402;48.082;11.628;2023-07-24T15:05:57;6.28;;;2.10;;
72408;SDS011;60402;48.082;11.628;2023-07-24T15:08:49;13.07;;;2.75;;
72408;SDS011;60402;48.082;11.628;2023-07-24T15:11:38;5.45;;;1.92;;
72408;SDS011;60402;48.082;11.628;2023-07-24T15:14:24;4.95;;;1.83;;
72408;SDS011;60402;48.082;11.628;2023-07-24T15:17:10;5.25;;;1.58;;
72408;SDS011;60402;48.082;11.628;2023-07-24T15:19:57;4.70;;;1.70;;
72408;SDS011;60402;48.082;11.628;2023-07-24T15:22:43;4.50;;;1.52;;
72408;SDS011;60402;48.082;11.628;2023-07-24T15:25:28;3.63;;;1.65;;
72408;SDS011;60402;48.082;11.628;2023-07-24T15:28:14;3.95;;;1.50;;
72408;SDS011;60402;48.082;11.628;2023-07-24T15:30:59;5.13;;;2.15;;
72408;SDS011;60402;48.082;11.628;2023-07-24T15:33:45;4.57;;;1.50;;
72408;SDS011;60402;48.082;11.628;2023-07-24T15:36:31;5.30;;;1.73;;
72408;SDS011;60402;48.082;11.628;2023-07-24T15:39:17;4.75;;;1.73;;
72408;SDS011;60402;48.082;11.628;2023-07-24T15:42:02;5.05;;;1.83;;
72408;SDS011;60402;48.082;11.628;2023-07-24T15:44:48;4.82;;;1.80;;
72408;SDS011;60402;48.082;11.628;2023-07-24T15:47:35;4.97;;;2.10;;
72408;SDS011;60402;48.082;11.628;2023-07-24T15:50:20;5.38;;;1.77;;
72408;SDS011;60402;48.082;11.628;2023-07-24T15:53:06;5.85;;;2.10;;
72408;SDS011;60402;48.082;11.628;2023-07-24T15:55:52;5.43;;;1.98;;
72408;SDS011;60402;48.082;11.628;2023-07-24T15:58:37;4.28;;;1.80;;
72408;SDS011;60402;48.082;11.628;2023-07-24T16:01:23;3.63;;;1.40;;
72408;SDS011;60402;48.082;11.628;2023-07-24T16:04:09;5.88;;;1.60;;
72408;SDS011;60402;48.082;11.628;2023-07-24T16:06:54;4.65;;;1.70;;
72408;SDS011;60402;48.082;11.628;2023-07-24T16:09:42;4.80;;;1.88;;
72408;SDS011;60402;48.082;11.628;2023-07-24T16:12:28;4.43;;;1.60;;
72408;SDS011;60402;48.082;11.628;2023-07-24T16:15:13;5.10;;;1.80;;
72408;SDS011;60402;48.082;11.628;2023-07-24T16:18:00;4.68;;;1.75;;
72408;SDS011;60402;48.082;11.628;2023-07-24T16:20:45;4.50;;;1.48;;
72408;SDS011;60402;48.082;11.628;2023-07-24T16:23:31;4.93;;;1.60;;
72408;SDS011;60402;48.082;11.628;2023-07-24T16:26:17;4.43;;;1.40;;